sensor_id;sensor_type;location;lat;lon;timestamp;P1;durP1;ratioP1;P2;durP2;ratioP2
31618;SDS011;18230;51.502;7.108;2023-05-20T00:01:48;3.50;;;2.53;;
31618;SDS011;18230;51.502;7.108;2023-05-20T00:06:48;3.70;;;2.30;;
31618;SDS011;18230;51.502;7.108;2023-05-20T00:11:49;5.93;;;2.35;;
31618;SDS011;18230;51.502;7.108;2023-05-20T00:16:50;5.10;;;2.70;;
31618;SDS011;18230;51.502;7.108;2023-05-20T00:21:51;4.45;;;2.40;;
31618;SDS011;18230;51.502;7.108;2023-05-20T00:26:51;7.10;;;2.20;;
31618;SDS011;18230;51.502;7.108;2023-05-20T00:31:52;7.00;;;2.72;;
31618;SDS011;18230;51.502;7.108;2023-05-20T00:36:53;9.98;;;3.38;;
31618;SDS011;18230;51.502;7.108;2023-05-20T00:41:54;9.13;;;2.85;;
31618;SDS011;18230;51.502;7.108;2023-05-20T00:46:59;10.90;;;3.17;;
31618;SDS011;18230;51.502;7.108;2023-05-20T00:52:00;7.45;;;2.28;;
31618;SDS011;18230;51.502;7.108;2023-05-20T00:57:02;6.13;;;2.15;;
31618;SDS011;18230;51.502;7.108;2023-05-20T01:02:04;6.15;;;2.97;;
31618;SDS011;18230;51.502;7.108;2023-05-20T01:07:05;10.60;;;2.38;;
31618;SDS011;18230;51.502;7.108;2023-05-20T01:17:20;6.30;;;3.05;;
31618;SDS011;18230;51.502;7.108;2023-05-20T01:22:26;5.05;;;2.45;;
31618;SDS011;18230;51.502;7.108;2023-05-20T01:27:27;8.23;;;2.83;;
31618;SDS011;18230;51.502;7.108;2023-05-20T01:32:39;5.85;;;2.67;;
31618;SDS011;18230;51.502;7.108;2023-05-20T01:37:43;8.20;;;3.38;;
31618;SDS011;18230;51.502;7.108;2023-05-20T01:42:44;6.38;;;2.83;;
31618;SDS011;18230;51.502;7.108;2023-05-20T01:52:52;7.25;;;2.60;;
31618;SDS011;18230;51.502;7.108;2023-05-20T01:57:52;6.10;;;2.45;;
31618;SDS011;18230;51.502;7.108;2023-05-20T02:02:53;6.30;;;2.72;;
31618;SDS011;18230;51.502;7.108;2023-05-20T02:07:55;4.97;;;2.42;;
31618;SDS011;18230;51.502;7.108;2023-05-20T02:12:55;6.05;;;2.22;;
31618;SDS011;18230;51.502;7.108;2023-05-20T02:17:56;8.32;;;2.50;;
31618;SDS011;18230;51.502;7.108;2023-05-20T02:22:57;8.18;;;2.60;;
31618;SDS011;18230;51.502;7.108;2023-05-20T02:27:58;5.13;;;2.20;;
31618;SDS011;18230;51.502;7.108;2023-05-20T02:32:59;7.97;;;2.80;;
31618;SDS011;18230;51.502;7.108;2023-05-20T02:38:00;4.25;;;2.50;;
31618;SDS011;18230;51.502;7.108;2023-05-20T02:43:01;6.00;;;2.45;;
31618;SDS011;18230;51.502;7.108;2023-05-20T02:48:02;6.13;;;2.10;;
31618;SDS011;18230;51.502;7.108;2023-05-20T02:53:03;7.63;;;2.70;;
31618;SDS011;18230;51.502;7.108;2023-05-20T02:58:03;7.03;;;2.90;;
31618;SDS011;18230;51.502;7.108;2023-05-20T03:03:04;6.50;;;2.30;;
31618;SDS011;18230;51.502;7.108;2023-05-20T03:08:07;6.43;;;2.45;;
31618;SDS011;18230;51.502;7.108;2023-05-20T03:13:09;4.82;;;2.47;;
31618;SDS011;18230;51.502;7.108;2023-05-20T03:18:10;5.53;;;2.53;;
31618;SDS011;18230;51.502;7.108;2023-05-20T03:23:12;5.10;;;2.80;;
31618;SDS011;18230;51.502;7.108;2023-05-20T03:28:13;6.65;;;2.70;;
31618;SDS011;18230;51.502;7.108;2023-05-20T03:33:14;4.90;;;2.88;;
31618;SDS011;18230;51.502;7.108;2023-05-20T03:38:14;8.10;;;2.60;;
31618;SDS011;18230;51.502;7.108;2023-05-20T03:43:15;5.50;;;2.50;;
31618;SDS011;18230;51.502;7.108;2023-05-20T03:48:16;4.45;;;2.25;;
31618;SDS011;18230;51.502;7.108;2023-05-20T03:53:16;5.53;;;2.80;;
31618;SDS011;18230;51.502;7.108;2023-05-20T03:58:19;5.28;;;3.20;;
31618;SDS011;18230;51.502;7.108;2023-05-20T04:03:20;8.05;;;3.03;;
31618;SDS011;18230;51.502;7.108;2023-05-20T04:08:21;10.05;;;2.70;;
31618;SDS011;18230;51.502;7.108;2023-05-20T04:13:24;8.25;;;3.42;;
31618;SDS011;18230;51.502;7.108;2023-05-20T04:18:25;6.43;;;3.00;;
31618;SDS011;18230;51.502;7.108;2023-05-20T04:23:28;5.78;;;2.70;;
31618;SDS011;18230;51.502;7.108;2023-05-20T04:28:29;6.47;;;2.95;;
31618;SDS011;18230;51.502;7.108;2023-05-20T04:33:30;9.45;;;2.83;;
31618;SDS011;18230;51.502;7.108;2023-05-20T04:38:31;6.47;;;2.58;;
31618;SDS011;18230;51.502;7.108;2023-05-20T04:43:32;9.48;;;3.28;;
31618;SDS011;18230;51.502;7.108;2023-05-20T04:48:33;6.35;;;2.83;;
31618;SDS011;18230;51.502;7.108;2023-05-20T04:53:34;5.18;;;2.85;;
31618;SDS011;18230;51.502;7.108;2023-05-20T04:58:35;6.32;;;2.80;;
31618;SDS011;18230;51.502;7.108;2023-05-20T05:03:37;7.22;;;3.13;;
31618;SDS011;18230;51.502;7.108;2023-05-20T05:08:37;4.90;;;2.55;;
31618;SDS011;18230;51.502;7.108;2023-05-20T05:13:39;8.30;;;3.05;;
31618;SDS011;18230;51.502;7.108;2023-05-20T05:18:40;5.55;;;3.05;;
31618;SDS011;18230;51.502;7.108;2023-05-20T05:23:41;12.10;;;3.38;;
31618;SDS011;18230;51.502;7.108;2023-05-20T05:28:41;8.90;;;3.22;;
31618;SDS011;18230;51.502;7.108;2023-05-20T05:33:42;6.60;;;3.25;;
31618;SDS011;18230;51.502;7.108;2023-05-20T05:38:43;4.13;;;3.00;;
31618;SDS011;18230;51.502;7.108;2023-05-20T05:43:43;12.32;;;3.45;;
31618;SDS011;18230;51.502;7.108;2023-05-20T05:48:44;5.20;;;3.30;;
31618;SDS011;18230;51.502;7.108;2023-05-20T05:53:48;5.75;;;3.47;;
31618;SDS011;18230;51.502;7.108;2023-05-20T05:58:48;5.15;;;3.22;;
31618;SDS011;18230;51.502;7.108;2023-05-20T06:03:49;7.68;;;3.38;;
31618;SDS011;18230;51.502;7.108;2023-05-20T06:08:50;6.20;;;3.63;;
31618;SDS011;18230;51.502;7.108;2023-05-20T06:13:50;12.65;;;3.95;;
31618;SDS011;18230;51.502;7.108;2023-05-20T06:18:51;10.80;;;3.63;;
31618;SDS011;18230;51.502;7.108;2023-05-20T06:23:56;8.30;;;3.47;;
31618;SDS011;18230;51.502;7.108;2023-05-20T06:28:56;10.70;;;3.67;;
31618;SDS011;18230;51.502;7.108;2023-05-20T06:33:57;8.35;;;4.13;;
31618;SDS011;18230;51.502;7.108;2023-05-20T06:38:58;9.45;;;4.05;;
31618;SDS011;18230;51.502;7.108;2023-05-20T06:43:59;8.85;;;3.85;;
31618;SDS011;18230;51.502;7.108;2023-05-20T06:49:00;10.10;;;4.10;;
31618;SDS011;18230;51.502;7.108;2023-05-20T06:54:00;4.97;;;3.92;;
31618;SDS011;18230;51.502;7.108;2023-05-20T06:59:01;8.55;;;4.30;;
31618;SDS011;18230;51.502;7.108;2023-05-20T07:04:02;9.20;;;4.72;;
31618;SDS011;18230;51.502;7.108;2023-05-20T07:09:03;8.77;;;4.93;;
31618;SDS011;18230;51.502;7.108;2023-05-20T07:14:04;6.68;;;4.95;;
31618;SDS011;18230;51.502;7.108;2023-05-20T07:19:05;9.77;;;5.20;;
31618;SDS011;18230;51.502;7.108;2023-05-20T07:24:06;15.25;;;5.53;;
31618;SDS011;18230;51.502;7.108;2023-05-20T07:29:06;10.98;;;5.78;;
31618;SDS011;18230;51.502;7.108;2023-05-20T07:34:09;8.57;;;4.97;;
31618;SDS011;18230;51.502;7.108;2023-05-20T07:39:09;7.30;;;5.00;;
31618;SDS011;18230;51.502;7.108;2023-05-20T07:44:10;6.97;;;4.88;;
31618;SDS011;18230;51.502;7.108;2023-05-20T07:49:12;11.50;;;5.50;;
31618;SDS011;18230;51.502;7.108;2023-05-20T07:54:13;11.93;;;6.07;;
31618;SDS011;18230;51.502;7.108;2023-05-20T07:59:14;8.50;;;4.88;;
31618;SDS011;18230;51.502;7.108;2023-05-20T08:04:15;8.18;;;4.88;;
31618;SDS011;18230;51.502;7.108;2023-05-20T08:09:15;9.52;;;5.82;;
31618;SDS011;18230;51.502;7.108;2023-05-20T08:14:17;8.02;;;5.85;;
31618;SDS011;18230;51.502;7.108;2023-05-20T08:19:17;11.27;;;5.78;;
31618;SDS011;18230;51.502;7.108;2023-05-20T08:24:18;10.65;;;5.95;;
31618;SDS011;18230;51.502;7.108;2023-05-20T08:29:19;9.85;;;6.43;;
31618;SDS011;18230;51.502;7.108;2023-05-20T08:34:20;8.00;;;5.93;;
31618;SDS011;18230;51.502;7.108;2023-05-20T08:39:20;9.30;;;5.95;;
31618;SDS011;18230;51.502;7.108;2023-05-20T08:44:21;11.80;;;6.30;;
31618;SDS011;18230;51.502;7.108;2023-05-20T08:49:23;10.63;;;6.75;;
31618;SDS011;18230;51.502;7.108;2023-05-20T08:54:24;13.20;;;6.50;;
31618;SDS011;18230;51.502;7.108;2023-05-20T08:59:32;14.48;;;6.68;;
31618;SDS011;18230;51.502;7.108;2023-05-20T09:04:33;10.90;;;7.18;;
31618;SDS011;18230;51.502;7.108;2023-05-20T09:09:34;13.30;;;7.00;;
31618;SDS011;18230;51.502;7.108;2023-05-20T09:14:34;10.70;;;7.47;;
31618;SDS011;18230;51.502;7.108;2023-05-20T09:19:35;11.35;;;7.20;;
31618;SDS011;18230;51.502;7.108;2023-05-20T09:24:36;11.35;;;7.38;;
31618;SDS011;18230;51.502;7.108;2023-05-20T09:29:37;15.85;;;7.60;;
31618;SDS011;18230;51.502;7.108;2023-05-20T09:34:37;15.40;;;7.93;;
31618;SDS011;18230;51.502;7.108;2023-05-20T09:39:43;16.75;;;8.50;;
31618;SDS011;18230;51.502;7.108;2023-05-20T09:44:52;16.02;;;8.40;;
31618;SDS011;18230;51.502;7.108;2023-05-20T09:49:53;17.38;;;8.10;;
31618;SDS011;18230;51.502;7.108;2023-05-20T09:54:55;12.93;;;7.78;;
31618;SDS011;18230;51.502;7.108;2023-05-20T09:59:58;10.40;;;8.05;;
31618;SDS011;18230;51.502;7.108;2023-05-20T10:04:59;11.32;;;8.25;;
31618;SDS011;18230;51.502;7.108;2023-05-20T10:20:52;13.35;;;7.00;;
31618;SDS011;18230;51.502;7.108;2023-05-20T10:25:53;11.27;;;6.00;;
31618;SDS011;18230;51.502;7.108;2023-05-20T10:30:58;12.95;;;6.53;;
31618;SDS011;18230;51.502;7.108;2023-05-20T10:35:59;9.32;;;6.05;;
31618;SDS011;18230;51.502;7.108;2023-05-20T10:41:10;11.82;;;6.18;;
31618;SDS011;18230;51.502;7.108;2023-05-20T10:46:16;8.95;;;6.00;;
31618;SDS011;18230;51.502;7.108;2023-05-20T10:51:17;14.57;;;7.13;;
31618;SDS011;18230;51.502;7.108;2023-05-20T10:56:21;11.25;;;6.35;;
31618;SDS011;18230;51.502;7.108;2023-05-20T11:01:24;10.30;;;5.63;;
31618;SDS011;18230;51.502;7.108;2023-05-20T11:06:26;9.05;;;6.07;;
31618;SDS011;18230;51.502;7.108;2023-05-20T11:11:27;12.57;;;6.15;;
31618;SDS011;18230;51.502;7.108;2023-05-20T11:16:28;11.13;;;6.22;;
31618;SDS011;18230;51.502;7.108;2023-05-20T11:21:29;11.05;;;5.80;;
31618;SDS011;18230;51.502;7.108;2023-05-20T11:26:31;8.13;;;6.15;;
31618;SDS011;18230;51.502;7.108;2023-05-20T11:31:32;11.35;;;6.63;;
31618;SDS011;18230;51.502;7.108;2023-05-20T11:36:33;8.10;;;5.55;;
31618;SDS011;18230;51.502;7.108;2023-05-20T11:41:33;8.35;;;6.10;;
31618;SDS011;18230;51.502;7.108;2023-05-20T11:46:41;9.57;;;5.40;;
31618;SDS011;18230;51.502;7.108;2023-05-20T11:51:43;9.25;;;5.95;;
31618;SDS011;18230;51.502;7.108;2023-05-20T11:56:44;11.98;;;5.50;;
31618;SDS011;18230;51.502;7.108;2023-05-20T12:01:45;9.73;;;5.38;;
31618;SDS011;18230;51.502;7.108;2023-05-20T12:06:45;10.85;;;5.60;;
31618;SDS011;18230;51.502;7.108;2023-05-20T12:11:46;8.63;;;5.57;;
31618;SDS011;18230;51.502;7.108;2023-05-20T12:16:47;11.30;;;6.03;;
31618;SDS011;18230;51.502;7.108;2023-05-20T12:21:48;7.75;;;5.00;;
31618;SDS011;18230;51.502;7.108;2023-05-20T12:26:49;9.48;;;5.32;;
31618;SDS011;18230;51.502;7.108;2023-05-20T12:31:50;11.95;;;5.10;;
31618;SDS011;18230;51.502;7.108;2023-05-20T12:36:50;8.40;;;5.50;;
31618;SDS011;18230;51.502;7.108;2023-05-20T12:41:51;9.77;;;5.32;;
31618;SDS011;18230;51.502;7.108;2023-05-20T12:46:53;9.18;;;4.35;;
31618;SDS011;18230;51.502;7.108;2023-05-20T12:51:54;11.15;;;4.82;;
31618;SDS011;18230;51.502;7.108;2023-05-20T12:56:55;6.20;;;5.15;;
31618;SDS011;18230;51.502;7.108;2023-05-20T13:01:56;9.88;;;5.60;;
31618;SDS011;18230;51.502;7.108;2023-05-20T13:06:57;6.38;;;4.95;;
31618;SDS011;18230;51.502;7.108;2023-05-20T13:11:58;5.80;;;4.47;;
31618;SDS011;18230;51.502;7.108;2023-05-20T13:17:00;9.23;;;5.20;;
31618;SDS011;18230;51.502;7.108;2023-05-20T13:22:00;10.13;;;4.78;;
31618;SDS011;18230;51.502;7.108;2023-05-20T13:27:01;9.50;;;4.68;;
31618;SDS011;18230;51.502;7.108;2023-05-20T13:32:02;7.18;;;4.50;;
31618;SDS011;18230;51.502;7.108;2023-05-20T13:37:03;7.05;;;4.55;;
31618;SDS011;18230;51.502;7.108;2023-05-20T13:42:05;6.18;;;4.15;;
31618;SDS011;18230;51.502;7.108;2023-05-20T13:47:05;7.38;;;3.83;;
31618;SDS011;18230;51.502;7.108;2023-05-20T13:52:06;9.57;;;5.20;;
31618;SDS011;18230;51.502;7.108;2023-05-20T13:57:08;7.15;;;5.05;;
31618;SDS011;18230;51.502;7.108;2023-05-20T14:02:09;4.78;;;4.15;;
31618;SDS011;18230;51.502;7.108;2023-05-20T14:07:10;6.53;;;4.03;;
31618;SDS011;18230;51.502;7.108;2023-05-20T14:12:11;6.00;;;3.78;;
31618;SDS011;18230;51.502;7.108;2023-05-20T14:17:11;6.72;;;3.95;;
31618;SDS011;18230;51.502;7.108;2023-05-20T14:22:12;6.68;;;4.63;;
31618;SDS011;18230;51.502;7.108;2023-05-20T14:27:14;5.88;;;4.07;;
31618;SDS011;18230;51.502;7.108;2023-05-20T14:32:15;10.27;;;4.00;;
31618;SDS011;18230;51.502;7.108;2023-05-20T14:37:16;10.27;;;4.25;;
31618;SDS011;18230;51.502;7.108;2023-05-20T14:42:16;4.00;;;3.60;;
31618;SDS011;18230;51.502;7.108;2023-05-20T14:47:17;8.32;;;4.68;;
31618;SDS011;18230;51.502;7.108;2023-05-20T14:52:21;5.90;;;4.30;;
31618;SDS011;18230;51.502;7.108;2023-05-20T14:57:22;6.13;;;4.00;;
31618;SDS011;18230;51.502;7.108;2023-05-20T15:02:23;7.95;;;3.92;;
31618;SDS011;18230;51.502;7.108;2023-05-20T15:07:23;8.45;;;4.07;;
31618;SDS011;18230;51.502;7.108;2023-05-20T15:12:25;6.93;;;4.13;;
31618;SDS011;18230;51.502;7.108;2023-05-20T15:17:26;5.60;;;4.20;;
31618;SDS011;18230;51.502;7.108;2023-05-20T15:22:27;11.32;;;4.70;;
31618;SDS011;18230;51.502;7.108;2023-05-20T15:27:28;6.53;;;4.03;;
31618;SDS011;18230;51.502;7.108;2023-05-20T15:32:28;6.72;;;4.40;;
31618;SDS011;18230;51.502;7.108;2023-05-20T15:37:29;5.10;;;4.53;;
31618;SDS011;18230;51.502;7.108;2023-05-20T15:42:30;9.15;;;4.47;;
31618;SDS011;18230;51.502;7.108;2023-05-20T15:47:31;7.60;;;3.97;;
31618;SDS011;18230;51.502;7.108;2023-05-20T15:52:32;5.03;;;4.07;;
31618;SDS011;18230;51.502;7.108;2023-05-20T15:57:32;5.53;;;4.40;;
31618;SDS011;18230;51.502;7.108;2023-05-20T16:02:33;4.90;;;4.03;;
31618;SDS011;18230;51.502;7.108;2023-05-20T16:07:34;4.70;;;3.67;;
31618;SDS011;18230;51.502;7.108;2023-05-20T16:12:35;7.95;;;4.22;;
31618;SDS011;18230;51.502;7.108;2023-05-20T16:17:36;7.93;;;4.50;;
31618;SDS011;18230;51.502;7.108;2023-05-20T16:22:37;6.05;;;4.80;;
31618;SDS011;18230;51.502;7.108;2023-05-20T16:27:38;9.02;;;5.70;;
31618;SDS011;18230;51.502;7.108;2023-05-20T16:32:39;10.00;;;3.80;;
31618;SDS011;18230;51.502;7.108;2023-05-20T16:37:40;15.35;;;9.65;;
31618;SDS011;18230;51.502;7.108;2023-05-20T16:42:41;20.80;;;14.80;;
31618;SDS011;18230;51.502;7.108;2023-05-20T16:47:43;19.45;;;14.13;;
31618;SDS011;18230;51.502;7.108;2023-05-20T16:52:44;5.78;;;3.88;;
31618;SDS011;18230;51.502;7.108;2023-05-20T16:57:45;6.43;;;3.83;;
31618;SDS011;18230;51.502;7.108;2023-05-20T17:02:46;7.22;;;4.25;;
31618;SDS011;18230;51.502;7.108;2023-05-20T17:07:47;6.03;;;3.97;;
31618;SDS011;18230;51.502;7.108;2023-05-20T17:12:48;5.18;;;3.83;;
31618;SDS011;18230;51.502;7.108;2023-05-20T17:17:49;5.68;;;3.75;;
31618;SDS011;18230;51.502;7.108;2023-05-20T17:22:50;6.57;;;3.72;;
31618;SDS011;18230;51.502;7.108;2023-05-20T17:27:51;7.57;;;4.18;;
31618;SDS011;18230;51.502;7.108;2023-05-20T17:32:52;6.10;;;4.30;;
31618;SDS011;18230;51.502;7.108;2023-05-20T17:37:53;7.60;;;4.50;;
31618;SDS011;18230;51.502;7.108;2023-05-20T17:42:54;5.72;;;3.95;;
31618;SDS011;18230;51.502;7.108;2023-05-20T17:47:54;6.05;;;4.25;;
31618;SDS011;18230;51.502;7.108;2023-05-20T17:52:55;7.60;;;4.95;;
31618;SDS011;18230;51.502;7.108;2023-05-20T17:57:56;7.72;;;4.93;;
31618;SDS011;18230;51.502;7.108;2023-05-20T18:02:57;7.63;;;4.97;;
31618;SDS011;18230;51.502;7.108;2023-05-20T18:07:58;7.18;;;4.70;;
31618;SDS011;18230;51.502;7.108;2023-05-20T18:12:59;7.75;;;4.88;;
31618;SDS011;18230;51.502;7.108;2023-05-20T18:18:00;7.80;;;4.97;;
31618;SDS011;18230;51.502;7.108;2023-05-20T18:23:01;6.85;;;4.93;;
31618;SDS011;18230;51.502;7.108;2023-05-20T18:28:02;8.45;;;4.82;;
31618;SDS011;18230;51.502;7.108;2023-05-20T18:33:03;5.90;;;4.97;;
31618;SDS011;18230;51.502;7.108;2023-05-20T18:38:05;9.35;;;5.85;;
31618;SDS011;18230;51.502;7.108;2023-05-20T18:43:06;8.75;;;6.63;;
31618;SDS011;18230;51.502;7.108;2023-05-20T18:48:06;13.00;;;7.35;;
31618;SDS011;18230;51.502;7.108;2023-05-20T18:53:07;12.82;;;7.50;;
31618;SDS011;18230;51.502;7.108;2023-05-20T18:58:08;12.20;;;7.30;;
31618;SDS011;18230;51.502;7.108;2023-05-20T19:03:09;13.43;;;8.00;;
31618;SDS011;18230;51.502;7.108;2023-05-20T19:08:10;15.65;;;8.68;;
31618;SDS011;18230;51.502;7.108;2023-05-20T19:13:11;12.50;;;8.43;;
31618;SDS011;18230;51.502;7.108;2023-05-20T19:18:11;14.98;;;8.88;;
31618;SDS011;18230;51.502;7.108;2023-05-20T19:23:13;10.52;;;8.05;;
31618;SDS011;18230;51.502;7.108;2023-05-20T19:28:13;16.60;;;9.23;;
31618;SDS011;18230;51.502;7.108;2023-05-20T19:33:14;12.73;;;8.57;;
31618;SDS011;18230;51.502;7.108;2023-05-20T19:38:15;15.05;;;9.73;;
31618;SDS011;18230;51.502;7.108;2023-05-20T19:43:16;12.57;;;9.27;;
31618;SDS011;18230;51.502;7.108;2023-05-20T19:48:16;10.60;;;8.18;;
31618;SDS011;18230;51.502;7.108;2023-05-20T19:53:17;13.20;;;8.40;;
31618;SDS011;18230;51.502;7.108;2023-05-20T19:58:19;14.05;;;8.80;;
31618;SDS011;18230;51.502;7.108;2023-05-20T20:03:21;15.13;;;8.65;;
31618;SDS011;18230;51.502;7.108;2023-05-20T20:08:22;14.00;;;8.63;;
31618;SDS011;18230;51.502;7.108;2023-05-20T20:13:22;15.18;;;8.70;;
31618;SDS011;18230;51.502;7.108;2023-05-20T20:18:23;18.13;;;9.02;;
31618;SDS011;18230;51.502;7.108;2023-05-20T20:23:24;13.57;;;8.65;;
31618;SDS011;18230;51.502;7.108;2023-05-20T20:28:26;14.10;;;8.68;;
31618;SDS011;18230;51.502;7.108;2023-05-20T20:33:26;11.98;;;8.52;;
31618;SDS011;18230;51.502;7.108;2023-05-20T20:38:27;13.20;;;9.20;;
31618;SDS011;18230;51.502;7.108;2023-05-20T20:43:28;15.50;;;9.55;;
31618;SDS011;18230;51.502;7.108;2023-05-20T20:48:29;14.40;;;9.27;;
31618;SDS011;18230;51.502;7.108;2023-05-20T20:53:30;16.55;;;9.60;;
31618;SDS011;18230;51.502;7.108;2023-05-20T20:58:30;14.02;;;10.05;;
31618;SDS011;18230;51.502;7.108;2023-05-20T21:03:33;17.05;;;9.60;;
31618;SDS011;18230;51.502;7.108;2023-05-20T21:08:35;16.10;;;10.55;;
31618;SDS011;18230;51.502;7.108;2023-05-20T21:13:36;13.68;;;10.25;;
31618;SDS011;18230;51.502;7.108;2023-05-20T21:18:38;15.50;;;10.55;;
31618;SDS011;18230;51.502;7.108;2023-05-20T21:23:39;14.68;;;10.55;;
31618;SDS011;18230;51.502;7.108;2023-05-20T21:28:40;15.40;;;10.15;;
31618;SDS011;18230;51.502;7.108;2023-05-20T21:33:41;16.77;;;11.20;;
31618;SDS011;18230;51.502;7.108;2023-05-20T21:38:42;15.70;;;11.60;;
31618;SDS011;18230;51.502;7.108;2023-05-20T21:43:43;17.15;;;10.80;;
31618;SDS011;18230;51.502;7.108;2023-05-20T21:48:43;18.00;;;10.43;;
31618;SDS011;18230;51.502;7.108;2023-05-20T21:53:44;14.25;;;9.93;;
31618;SDS011;18230;51.502;7.108;2023-05-20T21:58:45;18.58;;;11.90;;
31618;SDS011;18230;51.502;7.108;2023-05-20T22:03:45;18.25;;;12.02;;
31618;SDS011;18230;51.502;7.108;2023-05-20T22:08:47;17.90;;;11.88;;
31618;SDS011;18230;51.502;7.108;2023-05-20T22:13:48;17.40;;;12.27;;
31618;SDS011;18230;51.502;7.108;2023-05-20T22:18:48;18.10;;;11.07;;
31618;SDS011;18230;51.502;7.108;2023-05-20T22:23:49;18.50;;;11.77;;
31618;SDS011;18230;51.502;7.108;2023-05-20T22:28:50;16.85;;;11.45;;
31618;SDS011;18230;51.502;7.108;2023-05-20T22:33:51;18.23;;;11.80;;
31618;SDS011;18230;51.502;7.108;2023-05-20T22:38:51;20.30;;;11.77;;
31618;SDS011;18230;51.502;7.108;2023-05-20T22:43:52;20.35;;;11.05;;
31618;SDS011;18230;51.502;7.108;2023-05-20T22:48:55;18.98;;;11.23;;
31618;SDS011;18230;51.502;7.108;2023-05-20T22:53:57;20.38;;;11.45;;
31618;SDS011;18230;51.502;7.108;2023-05-20T22:58:57;16.63;;;11.00;;
31618;SDS011;18230;51.502;7.108;2023-05-20T23:03:59;18.77;;;11.38;;
31618;SDS011;18230;51.502;7.108;2023-05-20T23:09:00;15.68;;;11.90;;
31618;SDS011;18230;51.502;7.108;2023-05-20T23:14:01;15.98;;;11.77;;
31618;SDS011;18230;51.502;7.108;2023-05-20T23:19:01;16.33;;;11.40;;
31618;SDS011;18230;51.502;7.108;2023-05-20T23:24:02;16.17;;;11.23;;
31618;SDS011;18230;51.502;7.108;2023-05-20T23:29:03;17.30;;;11.57;;
31618;SDS011;18230;51.502;7.108;2023-05-20T23:34:04;21.15;;;11.27;;
31618;SDS011;18230;51.502;7.108;2023-05-20T23:39:05;16.55;;;11.75;;
31618;SDS011;18230;51.502;7.108;2023-05-20T23:44:06;17.00;;;11.45;;
31618;SDS011;18230;51.502;7.108;2023-05-20T23:49:07;18.25;;;11.20;;
31618;SDS011;18230;51.502;7.108;2023-05-20T23:54:09;19.98;;;12.05;;
31618;SDS011;18230;51.502;7.108;2023-05-20T23:59:13;17.65;;;12.15;;
